createdAt,value
2022-10-11T00:00:41.665Z,0.68
2022-10-11T00:03:09.072Z,0.90
2022-10-11T00:05:37.026Z,1.13
2022-10-11T00:08:05.603Z,0.75
2022-10-11T00:10:33.722Z,0.90
2022-10-11T00:13:01.934Z,0.70
2022-10-11T00:15:28.989Z,0.65
2022-10-11T00:17:56.429Z,0.65
2022-10-11T00:20:24.180Z,0.70
2022-10-11T00:22:51.048Z,1.00
2022-10-11T00:25:18.392Z,0.88
2022-10-11T00:27:45.369Z,0.65
2022-10-11T00:30:13.103Z,1.20
2022-10-11T00:32:40.090Z,0.90
2022-10-11T00:35:08.102Z,0.60
2022-10-11T00:37:37.180Z,0.90
2022-10-11T00:40:08.378Z,1.10
2022-10-11T00:42:35.376Z,0.60
2022-10-11T00:45:40.807Z,0.70
2022-10-11T00:48:22.282Z,0.80
2022-10-11T00:50:49.792Z,0.52
2022-10-11T00:53:16.730Z,0.70
2022-10-11T00:55:53.855Z,0.82
2022-10-11T00:58:23.306Z,1.10
2022-10-11T01:00:51.306Z,1.13
2022-10-11T01:03:20.766Z,1.00
2022-10-11T01:05:47.809Z,0.47
2022-10-11T01:08:14.798Z,0.93
2022-10-11T01:10:41.816Z,0.80
2022-10-11T01:13:39.454Z,0.65
2022-10-11T01:16:34.142Z,0.50
2022-10-11T01:19:19.834Z,0.70
2022-10-11T01:22:11.765Z,0.70
2022-10-11T01:24:50.341Z,0.70
2022-10-11T01:27:38.635Z,1.00
2022-10-11T01:30:32.984Z,0.80
2022-10-11T01:33:24.361Z,0.80
2022-10-11T01:35:53.779Z,0.70
2022-10-11T01:38:34.519Z,0.57
2022-10-11T01:41:14.999Z,0.52
2022-10-11T01:43:42.605Z,0.55
2022-10-11T01:46:11.020Z,0.75
2022-10-11T01:48:53.983Z,0.80
2022-10-11T01:51:27.356Z,0.40
2022-10-11T01:54:03.474Z,0.68
2022-10-11T01:56:37.391Z,1.02
2022-10-11T01:59:16.380Z,0.50
2022-10-11T02:02:19.148Z,0.80
2022-10-11T02:04:54.636Z,0.68
2022-10-11T02:07:27.471Z,0.68
2022-10-11T02:10:10.087Z,0.98
2022-10-11T02:12:43.055Z,0.60
2022-10-11T02:15:13.991Z,0.85
2022-10-11T02:17:46.599Z,0.60
2022-10-11T02:20:18.808Z,0.68
2022-10-11T02:22:49.163Z,0.98
2022-10-11T02:27:54.691Z,0.50
2022-10-11T02:30:22.423Z,0.63
2022-10-11T02:32:51.554Z,1.20
2022-10-11T02:35:19.041Z,0.68
2022-10-11T02:37:51.803Z,0.90
2022-10-11T02:40:27.621Z,0.75
2022-10-11T02:43:11.072Z,0.65
2022-10-11T02:45:42.162Z,0.90
2022-10-11T02:48:12.029Z,1.05
2022-10-11T02:50:40.482Z,0.77
2022-10-11T02:53:08.620Z,0.80
2022-10-11T02:55:35.711Z,0.60
2022-10-11T02:58:03.429Z,0.80
2022-10-11T03:00:30.874Z,0.75
2022-10-11T03:02:58.351Z,0.65
2022-10-11T03:05:25.723Z,0.60
2022-10-11T03:07:52.585Z,0.95
2022-10-11T03:10:19.476Z,1.00
2022-10-11T03:12:47.042Z,0.98
2022-10-11T03:15:14.217Z,0.70
2022-10-11T03:17:41.243Z,0.60
2022-10-11T03:20:09.435Z,0.68
2022-10-11T03:22:36.422Z,0.70
2022-10-11T03:25:04.877Z,0.70
2022-10-11T03:27:33.028Z,0.75
2022-10-11T03:30:00.515Z,0.93
2022-10-11T03:32:29.408Z,0.70
2022-10-11T03:34:56.496Z,0.93
2022-10-11T03:37:23.717Z,0.55
2022-10-11T03:39:51.331Z,0.70
2022-10-11T03:42:18.856Z,0.88
2022-10-11T03:44:49.072Z,0.85
2022-10-11T03:47:17.174Z,0.40
2022-10-11T03:49:44.097Z,0.70
2022-10-11T03:52:11.728Z,1.10
2022-10-11T03:54:38.575Z,1.05
2022-10-11T03:57:05.369Z,0.68
2022-10-11T03:59:32.826Z,0.80
2022-10-11T04:01:59.931Z,0.80
2022-10-11T04:04:27.032Z,1.05
2022-10-11T04:06:53.791Z,0.82
2022-10-11T04:09:20.840Z,0.82
2022-10-11T04:11:47.735Z,0.82
2022-10-11T04:14:14.758Z,1.23
2022-10-11T04:16:41.997Z,0.90
2022-10-11T04:19:09.109Z,0.85
2022-10-11T04:21:35.921Z,1.00
2022-10-11T04:24:03.192Z,0.85
2022-10-11T04:26:30.600Z,0.60
2022-10-11T04:28:57.672Z,0.55
2022-10-11T04:31:25.000Z,0.60
2022-10-11T04:33:52.044Z,1.55
2022-10-11T04:36:20.420Z,0.68
2022-10-11T04:38:47.353Z,0.52
2022-10-11T04:41:15.208Z,0.63
2022-10-11T04:43:42.958Z,0.80
2022-10-11T04:46:10.561Z,0.80
2022-10-11T04:48:38.111Z,0.77
2022-10-11T04:51:05.485Z,0.70
2022-10-11T04:53:32.730Z,0.55
2022-10-11T04:56:04.301Z,0.50
2022-10-11T04:58:35.181Z,0.47
2022-10-11T05:01:02.552Z,0.60
2022-10-11T05:03:30.051Z,0.50
2022-10-11T05:05:57.014Z,0.47
2022-10-11T05:08:24.416Z,0.30
2022-10-11T05:11:03.984Z,0.77
2022-10-11T05:13:32.154Z,0.45
2022-10-11T05:15:59.305Z,1.05
2022-10-11T05:18:26.435Z,0.52
2022-10-11T05:21:06.550Z,0.68
2022-10-11T05:23:35.001Z,0.60
2022-10-11T05:26:02.671Z,0.82
2022-10-11T05:28:31.287Z,0.50
2022-10-11T05:30:58.663Z,0.63
2022-10-11T05:33:26.013Z,0.57
2022-10-11T05:35:53.015Z,0.70
2022-10-11T05:38:19.941Z,1.00
2022-10-11T05:40:46.748Z,0.70
2022-10-11T05:43:13.678Z,0.70
2022-10-11T05:45:42.814Z,0.70
2022-10-11T05:48:10.696Z,0.70
2022-10-11T05:50:38.582Z,0.60
2022-10-11T05:53:06.276Z,0.80
2022-10-11T05:55:40.909Z,0.80
2022-10-11T05:58:10.216Z,0.40
2022-10-11T06:00:38.038Z,0.50
2022-10-11T06:03:06.516Z,0.47
2022-10-11T06:05:34.772Z,0.82
2022-10-11T06:08:02.532Z,0.77
2022-10-11T06:10:29.979Z,0.82
2022-10-11T06:12:56.910Z,1.13
2022-10-11T06:15:23.908Z,1.05
2022-10-11T06:17:51.315Z,0.60
2022-10-11T06:20:18.475Z,0.57
2022-10-11T06:22:45.377Z,0.65
2022-10-11T06:25:12.298Z,0.50
2022-10-11T06:27:39.187Z,0.80
2022-10-11T06:30:07.400Z,0.57
2022-10-11T06:32:34.950Z,0.60
2022-10-11T06:35:03.462Z,0.90
2022-10-11T06:37:31.025Z,1.13
2022-10-11T06:39:58.373Z,0.65
2022-10-11T06:42:25.798Z,0.70
2022-10-11T06:44:52.686Z,0.57
2022-10-11T06:47:19.559Z,1.20
2022-10-11T06:49:46.411Z,1.15
2022-10-11T06:52:13.260Z,0.90
2022-10-11T06:54:44.760Z,0.73
2022-10-11T06:57:12.182Z,0.80
2022-10-11T06:59:39.268Z,0.85
2022-10-11T07:02:07.155Z,0.70
2022-10-11T07:04:34.192Z,0.90
2022-10-11T07:07:01.146Z,0.98
2022-10-11T07:09:28.039Z,0.75
2022-10-11T07:11:54.988Z,1.10
2022-10-11T07:14:21.878Z,0.85
2022-10-11T07:16:48.717Z,0.80
2022-10-11T07:19:15.548Z,1.10
2022-10-11T07:21:42.453Z,1.10
2022-10-11T07:24:09.379Z,1.40
2022-10-11T07:26:38.571Z,1.20
2022-10-11T07:29:08.639Z,1.23
2022-10-11T07:31:38.423Z,1.10
2022-10-11T07:34:05.672Z,1.42
2022-10-11T07:36:32.912Z,1.25
2022-10-11T07:38:59.889Z,1.45
2022-10-11T07:41:27.168Z,0.93
2022-10-11T07:43:55.070Z,1.42
2022-10-11T07:46:22.258Z,1.60
2022-10-11T07:48:50.245Z,1.50
2022-10-11T07:51:20.100Z,2.15
2022-10-11T07:53:48.930Z,2.03
2022-10-11T07:56:19.054Z,2.15
2022-10-11T07:58:57.291Z,1.38
2022-10-11T08:01:26.348Z,2.35
2022-10-11T08:03:54.008Z,1.55
2022-10-11T08:06:23.208Z,1.80
2022-10-11T08:08:50.461Z,1.58
2022-10-11T08:11:22.601Z,1.95
2022-10-11T08:13:50.266Z,1.30
2022-10-11T08:16:18.212Z,0.93
2022-10-11T08:18:45.218Z,1.30
2022-10-11T08:21:14.506Z,1.50
2022-10-11T08:23:42.020Z,1.40
2022-10-11T08:26:10.401Z,1.35
2022-10-11T08:28:37.632Z,1.40
2022-10-11T08:31:06.260Z,1.35
2022-10-11T08:33:33.199Z,1.65
2022-10-11T08:36:05.218Z,1.83
2022-10-11T08:38:32.810Z,1.67
2022-10-11T08:41:01.128Z,1.52
2022-10-11T08:44:06.606Z,1.48
2022-10-11T08:46:38.841Z,1.63
2022-10-11T08:49:09.715Z,1.85
2022-10-11T08:51:50.667Z,1.60
2022-10-11T08:54:31.210Z,2.28
2022-10-11T08:56:58.153Z,1.67
2022-10-11T08:59:46.668Z,1.30
2022-10-11T09:03:07.084Z,1.55
2022-10-11T09:05:36.210Z,1.73
2022-10-11T09:08:23.535Z,1.58
2022-10-11T09:10:56.657Z,1.83
2022-10-11T09:13:52.502Z,1.02
2022-10-11T09:16:25.432Z,1.40
2022-10-11T09:19:22.105Z,1.40
2022-10-11T09:21:58.010Z,1.30
2022-10-11T09:24:56.377Z,1.35
2022-10-11T09:27:50.362Z,0.90
2022-10-11T09:30:20.143Z,1.05
2022-10-11T09:33:08.754Z,1.20
2022-10-11T09:35:41.090Z,1.23
2022-10-11T09:38:18.903Z,0.88
2022-10-11T09:40:54.710Z,1.05
2022-10-11T09:43:21.773Z,0.90
2022-10-11T09:45:49.769Z,0.85
2022-10-11T09:48:40.724Z,0.90
2022-10-11T09:51:20.700Z,0.90
2022-10-11T09:53:50.819Z,1.05
2022-10-11T09:56:17.912Z,1.00
2022-10-11T09:58:44.869Z,1.45
2022-10-11T10:01:21.699Z,1.25
2022-10-11T10:04:03.284Z,1.10
2022-10-11T10:06:30.840Z,0.98
2022-10-11T10:09:33.163Z,0.93
2022-10-11T10:12:12.554Z,0.80
2022-10-11T10:14:41.182Z,0.80
2022-10-11T10:17:17.116Z,0.95
2022-10-11T10:19:50.439Z,1.35
2022-10-11T10:22:23.716Z,1.17
2022-10-11T10:24:52.198Z,0.90
2022-10-11T10:27:23.472Z,1.20
2022-10-11T10:30:02.694Z,1.10
2022-10-11T10:32:48.221Z,0.80
2022-10-11T10:35:41.848Z,1.30
2022-10-11T10:38:32.690Z,1.60
2022-10-11T10:41:04.281Z,1.92
2022-10-11T10:43:37.585Z,1.37
2022-10-11T10:46:37.710Z,1.70
2022-10-11T10:49:48.885Z,1.67
2022-10-11T10:52:29.102Z,1.75
2022-10-11T10:55:28.352Z,1.58
2022-10-11T10:58:39.678Z,2.03
2022-10-11T11:01:19.081Z,1.70
2022-10-11T11:04:07.491Z,1.80
2022-10-11T11:06:50.144Z,2.13
2022-10-11T11:09:31.845Z,1.90
2022-10-11T11:12:32.598Z,1.98
2022-10-11T11:15:22.271Z,2.40
2022-10-11T11:18:12.992Z,2.10
2022-10-11T11:20:52.029Z,2.20
2022-10-11T11:23:27.203Z,2.05
2022-10-11T11:26:09.255Z,1.90
2022-10-11T11:29:02.540Z,1.43
2022-10-11T11:31:40.536Z,1.42
2022-10-11T11:34:24.070Z,1.75
2022-10-11T11:37:25.299Z,1.40
2022-10-11T11:39:57.593Z,1.80
2022-10-11T11:42:48.983Z,1.42
2022-10-11T11:45:53.707Z,1.45
2022-10-11T11:48:27.027Z,1.80
2022-10-11T11:51:03.105Z,1.70
2022-10-11T11:53:44.163Z,2.00
2022-10-11T11:56:24.770Z,1.47
2022-10-11T11:59:10.192Z,1.17
2022-10-11T12:01:46.901Z,1.70
2022-10-11T12:04:31.310Z,1.30
2022-10-11T12:07:17.945Z,1.52
2022-10-11T12:09:51.400Z,1.50
2022-10-11T12:12:34.086Z,1.50
2022-10-11T12:15:16.173Z,1.83
2022-10-11T12:17:58.095Z,1.88
2022-10-11T12:20:31.677Z,1.60
2022-10-11T12:23:00.897Z,1.75
2022-10-11T12:25:28.600Z,1.47
2022-10-11T12:28:01.238Z,1.60
2022-10-11T12:30:47.918Z,1.40
2022-10-11T12:33:30.759Z,1.50
2022-10-11T12:36:19.644Z,1.75
2022-10-11T12:38:46.554Z,1.70
2022-10-11T12:41:33.723Z,1.40
2022-10-11T12:44:22.736Z,1.38
2022-10-11T12:46:55.681Z,2.15
2022-10-11T12:49:38.025Z,4.13
2022-10-11T12:52:23.885Z,1.70
2022-10-11T12:55:12.599Z,1.50
2022-10-11T12:57:54.614Z,1.48
2022-10-11T13:00:31.149Z,1.53
2022-10-11T13:03:04.628Z,1.50
2022-10-11T13:05:48.704Z,1.53
2022-10-11T13:08:28.705Z,1.00
2022-10-11T13:10:59.097Z,1.15
2022-10-11T13:13:40.807Z,1.50
2022-10-11T13:16:49.123Z,1.48
2022-10-11T13:19:21.097Z,1.73
2022-10-11T13:21:54.460Z,1.52
2022-10-11T13:24:23.093Z,1.25
2022-10-11T13:26:52.615Z,1.35
2022-10-11T13:29:33.818Z,1.50
2022-10-11T13:32:07.692Z,1.30
2022-10-11T13:34:40.624Z,1.50
2022-10-11T13:37:14.379Z,1.25
2022-10-11T13:39:41.914Z,1.20
2022-10-11T13:42:13.724Z,1.30
2022-10-11T13:44:42.138Z,1.58
2022-10-11T13:47:18.337Z,1.38
2022-10-11T13:50:18.901Z,1.65
2022-10-11T13:52:59.697Z,1.48
2022-10-11T13:55:33.799Z,1.40
2022-10-11T13:58:11.219Z,1.30
2022-10-11T14:00:40.074Z,1.70
2022-10-11T14:03:16.529Z,1.38
2022-10-11T14:05:53.813Z,1.60
2022-10-11T14:08:39.915Z,1.48
2022-10-11T14:11:08.156Z,1.40
2022-10-11T14:13:36.818Z,1.52
2022-10-11T14:16:08.520Z,1.45
2022-10-11T14:18:42.909Z,1.40
2022-10-11T14:21:45.254Z,1.70
2022-10-11T14:24:13.162Z,1.70
2022-10-11T14:26:44.339Z,1.50
2022-10-11T14:29:23.199Z,1.23
2022-10-11T14:31:50.337Z,1.47
2022-10-11T14:34:23.298Z,1.45
2022-10-11T14:36:51.400Z,1.35
2022-10-11T14:39:22.352Z,1.50
2022-10-11T14:41:50.018Z,1.30
2022-10-11T14:44:17.752Z,1.43
2022-10-11T14:46:46.351Z,1.10
2022-10-11T14:49:13.113Z,1.10
2022-10-11T14:51:40.248Z,1.20
2022-10-11T14:54:07.860Z,1.20
2022-10-11T14:56:35.643Z,1.38
2022-10-11T14:59:02.842Z,1.20
2022-10-11T15:01:29.974Z,1.27
2022-10-11T15:03:56.850Z,1.67
2022-10-11T15:06:32.197Z,1.55
2022-10-11T15:08:59.181Z,1.70
2022-10-11T15:11:26.533Z,1.67
2022-10-11T15:13:53.457Z,1.73
2022-10-11T15:16:21.411Z,1.33
2022-10-11T15:18:52.829Z,1.47
2022-10-11T15:21:21.871Z,1.60
2022-10-11T15:23:50.014Z,1.43
2022-10-11T15:26:20.099Z,1.70
2022-10-11T15:28:48.368Z,1.55
2022-10-11T15:31:15.564Z,1.50
2022-10-11T15:33:42.474Z,1.58
2022-10-11T15:36:16.448Z,1.50
2022-10-11T15:38:44.501Z,1.37
2022-10-11T15:41:13.298Z,1.70
2022-10-11T15:43:40.625Z,1.80
2022-10-11T15:46:08.212Z,2.30
2022-10-11T15:48:35.665Z,1.80
2022-10-11T15:51:02.597Z,2.00
2022-10-11T15:53:31.271Z,1.95
2022-10-11T15:56:01.460Z,2.03
2022-10-11T15:58:33.446Z,1.77
2022-10-11T16:01:05.552Z,1.70
2022-10-11T16:03:33.871Z,1.60
2022-10-11T16:06:05.191Z,1.50
2022-10-11T16:08:34.701Z,1.75
2022-10-11T16:11:02.285Z,1.98
2022-10-11T16:13:29.389Z,2.53
2022-10-11T16:15:56.416Z,2.08
2022-10-11T16:18:23.303Z,2.10
2022-10-11T16:20:51.965Z,1.90
2022-10-11T16:23:20.909Z,1.80
2022-10-11T16:26:02.521Z,2.33
2022-10-11T16:28:30.015Z,2.25
2022-10-11T16:30:57.486Z,2.15
2022-10-11T16:33:24.706Z,1.83
2022-10-11T16:35:51.474Z,2.10
2022-10-11T16:38:18.261Z,1.93
2022-10-11T16:40:45.061Z,2.00
2022-10-11T16:43:12.506Z,1.92
2022-10-11T16:45:39.318Z,2.25
2022-10-11T16:48:06.309Z,1.80
2022-10-11T16:50:38.302Z,1.83
2022-10-11T16:53:06.144Z,1.95
2022-10-11T16:55:33.111Z,1.90
2022-10-11T16:58:01.130Z,2.00
2022-10-11T17:00:28.288Z,2.13
2022-10-11T17:02:55.398Z,1.98
2022-10-11T17:05:22.314Z,1.93
2022-10-11T17:07:49.251Z,1.92
2022-10-11T17:10:16.047Z,1.80
2022-10-11T17:12:47.749Z,2.03
2022-10-11T17:15:16.772Z,1.90
2022-10-11T17:17:43.690Z,1.90
2022-10-11T17:20:10.739Z,1.90
2022-10-11T17:22:37.568Z,2.42
2022-10-11T17:25:05.700Z,2.30
2022-10-11T17:27:33.011Z,2.03
2022-10-11T17:30:00.660Z,2.10
2022-10-11T17:32:28.030Z,1.95
2022-10-11T17:34:55.282Z,1.92
2022-10-11T17:37:22.257Z,2.05
2022-10-11T17:39:49.762Z,2.08
2022-10-11T17:42:16.582Z,1.90
2022-10-11T17:44:43.533Z,2.10
2022-10-11T17:47:10.696Z,1.80
2022-10-11T17:49:37.688Z,2.20
2022-10-11T17:52:04.594Z,1.80
2022-10-11T17:54:31.824Z,1.92
2022-10-11T17:56:58.617Z,1.48
2022-10-11T17:59:27.589Z,1.27
2022-10-11T18:01:55.003Z,1.42
2022-10-11T18:04:22.482Z,1.40
2022-10-11T18:06:49.757Z,1.70
2022-10-11T18:09:18.680Z,1.45
2022-10-11T18:11:45.942Z,2.00
2022-10-11T18:14:13.081Z,1.70
2022-10-11T18:16:40.433Z,2.08
2022-10-11T18:19:13.274Z,1.60
2022-10-11T18:21:40.876Z,1.80
2022-10-11T18:24:11.990Z,1.75
2022-10-11T18:26:39.467Z,1.42
2022-10-11T18:29:06.916Z,2.22
2022-10-11T18:31:35.281Z,2.20
2022-10-11T18:34:04.954Z,1.73
2022-10-11T18:36:32.920Z,1.98
2022-10-11T18:39:05.970Z,2.10
2022-10-11T18:41:34.028Z,3.50
2022-10-11T18:44:03.716Z,3.70
2022-10-11T18:46:31.621Z,2.85
2022-10-11T18:49:01.966Z,3.00
2022-10-11T18:51:35.720Z,3.65
2022-10-11T18:54:06.072Z,2.90
2022-10-11T18:56:34.629Z,2.33
2022-10-11T18:59:01.431Z,2.22
2022-10-11T19:01:40.821Z,2.38
2022-10-11T19:04:10.521Z,2.63
2022-10-11T19:06:40.358Z,3.83
2022-10-11T19:09:13.291Z,2.72
2022-10-11T19:11:40.914Z,2.88
2022-10-11T19:14:11.406Z,2.00
2022-10-11T19:16:42.436Z,1.98
2022-10-11T19:19:12.464Z,1.90
2022-10-11T19:21:39.727Z,2.17
2022-10-11T19:24:07.043Z,2.20
2022-10-11T19:26:36.681Z,2.63
2022-10-11T19:29:15.516Z,3.63
2022-10-11T19:31:45.270Z,3.83
2022-10-11T19:34:13.143Z,3.08
2022-10-11T19:36:42.720Z,4.25
2022-10-11T19:39:15.318Z,3.53
2022-10-11T19:41:42.761Z,3.92
2022-10-11T19:44:10.381Z,4.13
2022-10-11T19:46:51.056Z,3.58
2022-10-11T19:49:24.180Z,3.40
2022-10-11T19:51:52.300Z,3.70
2022-10-11T19:54:19.807Z,4.80
2022-10-11T19:56:46.956Z,5.28
2022-10-11T19:59:15.096Z,3.65
2022-10-11T20:01:42.576Z,4.10
2022-10-11T20:04:27.510Z,3.42
2022-10-11T20:06:58.919Z,3.65
2022-10-11T20:09:30.635Z,2.65
2022-10-11T20:11:58.742Z,2.65
2022-10-11T20:14:26.183Z,3.35
2022-10-11T20:16:53.405Z,3.38
2022-10-11T20:19:25.032Z,2.92
2022-10-11T20:21:55.600Z,2.60
2022-10-11T20:24:22.529Z,3.20
2022-10-11T20:26:49.301Z,2.90
2022-10-11T20:29:16.998Z,2.70
2022-10-11T20:31:43.908Z,3.15
2022-10-11T20:34:11.469Z,2.63
2022-10-11T20:36:38.358Z,2.63
2022-10-11T20:39:06.617Z,2.85
2022-10-11T20:41:39.959Z,2.78
2022-10-11T20:44:08.826Z,2.85
2022-10-11T20:46:39.592Z,3.08
2022-10-11T20:49:09.697Z,3.20
2022-10-11T20:51:38.654Z,3.33
2022-10-11T20:54:06.215Z,3.55
2022-10-11T20:56:34.318Z,2.88
2022-10-11T20:59:01.712Z,3.22
2022-10-11T21:01:33.170Z,2.95
2022-10-11T21:04:01.818Z,2.97
2022-10-11T21:06:30.311Z,2.78
2022-10-11T21:08:59.133Z,3.03
2022-10-11T21:11:31.251Z,3.10
2022-10-11T21:14:00.837Z,2.35
2022-10-11T21:16:27.977Z,2.30
2022-10-11T21:18:56.789Z,2.20
2022-10-11T21:21:24.893Z,2.55
2022-10-11T21:24:02.060Z,2.60
2022-10-11T21:26:30.344Z,2.95
2022-10-11T21:28:59.370Z,2.70
2022-10-11T21:31:31.069Z,2.65
2022-10-11T21:33:59.922Z,2.17
2022-10-11T21:36:26.924Z,2.60
2022-10-11T21:38:54.397Z,2.75
2022-10-11T21:41:25.870Z,2.50
2022-10-11T21:43:53.425Z,3.10
2022-10-11T21:46:32.533Z,2.80
2022-10-11T21:49:08.927Z,2.30
2022-10-11T21:51:35.940Z,2.65
2022-10-11T21:54:02.855Z,2.85
2022-10-11T21:56:30.196Z,2.38
2022-10-11T21:58:57.576Z,2.00
2022-10-11T22:01:25.616Z,2.90
2022-10-11T22:03:53.846Z,2.53
2022-10-11T22:06:21.302Z,2.40
2022-10-11T22:08:49.966Z,1.92
2022-10-11T22:11:17.578Z,2.03
2022-10-11T22:13:44.629Z,2.35
2022-10-11T22:16:14.188Z,2.17
2022-10-11T22:18:42.453Z,2.22
2022-10-11T22:21:18.129Z,2.03
2022-10-11T22:23:48.515Z,1.80
2022-10-11T22:26:20.607Z,2.10
2022-10-11T22:28:48.681Z,1.83
2022-10-11T22:31:18.187Z,2.20
2022-10-11T22:36:18.926Z,1.80
2022-10-11T22:38:46.381Z,1.70
2022-10-11T22:41:13.646Z,1.85
2022-10-11T22:43:40.588Z,2.30
2022-10-11T22:46:07.865Z,1.90
2022-10-11T22:48:34.866Z,2.88
2022-10-11T22:51:01.679Z,2.35
2022-10-11T22:53:29.119Z,2.50
2022-10-11T22:55:56.200Z,2.92
2022-10-11T22:58:23.155Z,2.72
2022-10-11T23:00:50.194Z,2.35
2022-10-11T23:03:18.385Z,3.00
2022-10-11T23:05:57.418Z,3.53
2022-10-11T23:08:25.799Z,3.25
2022-10-11T23:10:52.905Z,2.85
2022-10-11T23:13:20.007Z,2.28
2022-10-11T23:15:46.848Z,3.60
2022-10-11T23:18:15.955Z,2.80
2022-10-11T23:20:42.822Z,2.70
2022-10-11T23:23:09.743Z,2.20
2022-10-11T23:25:36.660Z,2.25
2022-10-11T23:28:03.816Z,3.00
2022-10-11T23:30:31.501Z,2.88
2022-10-11T23:32:58.579Z,2.55
2022-10-11T23:35:25.577Z,1.92
2022-10-11T23:37:55.493Z,2.90
2022-10-11T23:40:22.607Z,2.63
2022-10-11T23:42:49.534Z,2.90
2022-10-11T23:45:16.597Z,2.70
2022-10-11T23:47:43.514Z,2.75
2022-10-11T23:50:10.426Z,3.03
2022-10-11T23:52:37.295Z,2.95
2022-10-11T23:55:04.441Z,2.78
2022-10-11T23:57:31.397Z,2.05
2022-10-11T23:59:58.399Z,2.53
